Terminal Aerodrome Forecast
Issued by NWS Paducah, KY

Home | Current Version | Previous Version | Text Only | Print | Product List | Glossary Off
Versions: 1 2 3 4 5 6 7 8 9 10 11 12 13 14 15 16 17 18 19 20 21 22

000
FTUS43 KPAH 040806 AAB
TAFPAH
TAF AMD
KPAH 040806Z 0408/0506 02006KT 3SM -RA BR OVC005
      TEMPO 0408/0412 1SM -RA BR SCT005 OVC015
     FM041400 01012G18KT 3SM -PLSN BR OVC015
     FM042100 01015G21KT 2SM -SN BR OVC020=

USA.gov is the U.S. government's official web portal to all federal, state and local government web resources and services.